createdAt,value
2023-01-18T00:03:34.961Z,2.30
2023-01-18T00:08:38.619Z,2.32
2023-01-18T00:13:40.189Z,2.30
2023-01-18T00:18:42.495Z,2.30
2023-01-18T00:23:43.984Z,2.27
2023-01-18T00:28:45.804Z,2.27
2023-01-18T00:33:49.373Z,2.22
2023-01-18T00:38:51.927Z,2.27
2023-01-18T00:43:53.942Z,2.28
2023-01-18T00:48:57.332Z,2.22
2023-01-18T00:53:58.753Z,2.26
2023-01-18T00:59:00.156Z,2.27
2023-01-18T01:04:20.122Z,2.22
2023-01-18T01:09:24.687Z,2.18
2023-01-18T01:14:44.929Z,2.20
2023-01-18T01:20:04.755Z,2.25
2023-01-18T01:25:25.092Z,2.24
2023-01-18T01:30:26.580Z,2.29
2023-01-18T01:35:28.024Z,2.24
2023-01-18T01:40:29.429Z,2.22
2023-01-18T01:45:32.534Z,2.17
2023-01-18T01:50:39.322Z,2.15
2023-01-18T01:55:41.173Z,2.15
2023-01-18T02:00:43.833Z,2.15
2023-01-18T02:05:50.071Z,2.19
2023-01-18T02:10:52.638Z,2.26
2023-01-18T02:16:07.854Z,2.30
2023-01-18T02:21:17.206Z,2.37
2023-01-18T02:26:48.432Z,2.37
2023-01-18T02:32:19.781Z,2.30
2023-01-18T02:37:40.504Z,2.22
2023-01-18T02:43:03.548Z,2.20
2023-01-18T02:48:06.698Z,2.19
2023-01-18T02:53:13.519Z,2.20
2023-01-18T02:58:38.796Z,2.27
2023-01-18T03:03:44.080Z,2.29
2023-01-18T03:08:48.733Z,2.17
2023-01-18T03:13:56.821Z,2.16
2023-01-18T03:19:05.862Z,2.18
2023-01-18T03:24:10.108Z,2.17
2023-01-18T03:29:32.181Z,2.18
2023-01-18T03:34:52.107Z,2.26
2023-01-18T03:39:59.278Z,2.40
2023-01-18T03:45:11.299Z,2.37
2023-01-18T03:50:12.770Z,2.44
2023-01-18T03:55:24.259Z,2.50
2023-01-18T04:00:25.761Z,2.44
2023-01-18T04:05:27.257Z,2.34
2023-01-18T04:10:28.721Z,2.25
2023-01-18T04:15:30.143Z,2.22
2023-01-18T04:20:31.551Z,2.20
2023-01-18T04:25:32.970Z,2.30
2023-01-18T04:30:34.437Z,2.29
2023-01-18T04:35:36.271Z,2.22
2023-01-18T04:40:37.721Z,2.15
2023-01-18T04:45:39.264Z,2.15
2023-01-18T04:50:45.541Z,2.17
2023-01-18T04:55:47.240Z,2.22
2023-01-18T05:00:48.771Z,2.28
2023-01-18T05:05:50.248Z,2.33
2023-01-18T05:10:51.695Z,2.38
2023-01-18T05:15:53.129Z,2.43
2023-01-18T05:20:54.609Z,2.41
2023-01-18T05:25:57.820Z,2.37
2023-01-18T05:30:59.356Z,2.40
2023-01-18T05:36:00.785Z,2.40
2023-01-18T05:41:02.375Z,2.37
2023-01-18T05:46:05.372Z,2.36
2023-01-18T05:51:09.423Z,2.32
2023-01-18T05:56:10.955Z,2.32
2023-01-18T06:01:12.402Z,2.32
2023-01-18T06:06:13.877Z,2.39
2023-01-18T06:11:15.277Z,2.27
2023-01-18T06:16:16.735Z,2.35
2023-01-18T06:21:18.992Z,2.38
2023-01-18T06:26:20.402Z,2.37
2023-01-18T06:31:21.923Z,2.19
2023-01-18T06:36:23.442Z,2.12
2023-01-18T06:41:24.834Z,2.22
2023-01-18T06:46:26.333Z,2.29
2023-01-18T06:51:28.011Z,2.14
2023-01-18T06:56:29.528Z,2.10
2023-01-18T07:01:31.007Z,2.14
2023-01-18T07:06:32.521Z,2.15
2023-01-18T07:11:35.671Z,2.04
2023-01-18T07:16:37.890Z,2.07
2023-01-18T07:21:39.646Z,2.12
2023-01-18T07:26:41.096Z,2.14
2023-01-18T07:31:43.474Z,2.16
2023-01-18T07:36:45.049Z,2.21
2023-01-18T07:41:46.874Z,2.22
2023-01-18T07:46:48.330Z,2.29
2023-01-18T07:51:49.789Z,2.39
2023-01-18T07:56:51.495Z,2.33
2023-01-18T08:01:52.970Z,2.17
2023-01-18T08:06:57.618Z,2.03
2023-01-18T08:11:59.035Z,2.09
2023-01-18T08:17:00.441Z,2.11
2023-01-18T08:22:02.469Z,2.07
2023-01-18T08:27:03.888Z,2.06
2023-01-18T08:32:05.448Z,2.08
2023-01-18T08:37:06.869Z,2.35
2023-01-18T08:42:12.010Z,2.51
2023-01-18T08:47:15.583Z,2.62
2023-01-18T08:52:17.170Z,2.90
2023-01-18T08:57:18.605Z,2.74
2023-01-18T09:02:20.202Z,2.64
2023-01-18T09:07:21.693Z,2.68
2023-01-18T09:12:23.752Z,2.76
2023-01-18T09:17:25.694Z,3.16
2023-01-18T09:22:27.162Z,3.31
2023-01-18T09:27:28.676Z,3.36
2023-01-18T09:32:30.959Z,3.52
2023-01-18T09:37:32.844Z,3.65
2023-01-18T09:42:44.562Z,3.80
2023-01-18T09:47:48.438Z,4.09
2023-01-18T09:53:33.524Z,4.40
2023-01-18T09:58:56.370Z,4.49
2023-01-18T10:04:17.266Z,4.20
2023-01-18T10:09:41.776Z,4.28
2023-01-18T10:15:02.097Z,4.27
2023-01-18T10:20:14.183Z,4.96
2023-01-18T10:25:30.706Z,4.98
2023-01-18T10:30:50.724Z,4.50
2023-01-18T10:36:00.555Z,4.32
2023-01-18T10:41:03.135Z,4.62
2023-01-18T10:46:13.886Z,4.82
2023-01-18T10:51:37.001Z,4.62
2023-01-18T10:56:40.019Z,4.39
2023-01-18T11:01:54.989Z,4.63
2023-01-18T11:06:59.549Z,4.79
2023-01-18T11:12:34.841Z,4.80
2023-01-18T11:17:37.002Z,4.95
2023-01-18T11:22:56.459Z,4.89
2023-01-18T11:28:02.314Z,4.75
2023-01-18T11:33:03.950Z,4.69
2023-01-18T11:38:07.291Z,4.79
2023-01-18T11:43:22.967Z,4.74
2023-01-18T11:48:42.243Z,4.87
2023-01-18T11:54:26.580Z,5.10
2023-01-18T11:59:31.072Z,5.13
2023-01-18T12:04:44.397Z,5.24
2023-01-18T12:09:55.994Z,5.50
2023-01-18T12:15:03.848Z,5.23
2023-01-18T12:20:16.307Z,5.31
2023-01-18T12:25:42.302Z,5.29
2023-01-18T12:30:53.250Z,5.26
2023-01-18T12:36:00.739Z,5.30
2023-01-18T12:41:27.231Z,5.48
2023-01-18T12:46:38.473Z,5.58
2023-01-18T12:51:41.321Z,5.56
2023-01-18T12:56:48.518Z,5.04
2023-01-18T13:01:57.479Z,5.20
2023-01-18T13:07:07.090Z,5.63
2023-01-18T13:12:09.563Z,5.78
2023-01-18T13:17:17.164Z,5.96
2023-01-18T13:22:46.781Z,5.51
2023-01-18T13:28:23.753Z,5.11
2023-01-18T13:33:28.371Z,4.81
2023-01-18T13:38:40.978Z,4.90
2023-01-18T13:43:42.903Z,4.82
2023-01-18T13:48:50.976Z,4.62
2023-01-18T13:53:53.191Z,4.40
2023-01-18T13:58:58.503Z,4.16
2023-01-18T14:04:23.229Z,3.79
2023-01-18T14:09:47.066Z,3.70
2023-01-18T14:14:57.049Z,3.72
2023-01-18T14:20:18.269Z,3.81
2023-01-18T14:25:32.091Z,3.79
2023-01-18T14:30:36.488Z,3.75
2023-01-18T14:35:38.965Z,3.86
2023-01-18T14:40:44.829Z,3.90
2023-01-18T14:46:03.704Z,3.91
2023-01-18T14:51:07.005Z,3.87
2023-01-18T14:56:08.579Z,3.78
2023-01-18T15:01:30.028Z,3.61
2023-01-18T15:06:40.381Z,3.43
2023-01-18T15:11:44.310Z,3.37
2023-01-18T15:16:48.527Z,3.31
2023-01-18T15:21:50.680Z,3.19
2023-01-18T15:27:00.993Z,3.11
2023-01-18T15:32:13.347Z,2.94
2023-01-18T15:37:21.761Z,2.81
2023-01-18T15:42:42.964Z,2.69
2023-01-18T15:47:51.976Z,2.54
2023-01-18T15:53:14.237Z,2.43
2023-01-18T15:58:36.574Z,2.33
2023-01-18T16:03:46.007Z,2.22
2023-01-18T16:08:56.742Z,2.12
2023-01-18T16:14:00.489Z,2.01
2023-01-18T16:19:07.033Z,1.93
2023-01-18T16:24:41.081Z,1.85
2023-01-18T16:29:48.010Z,1.76
2023-01-18T16:34:49.655Z,1.70
2023-01-18T16:39:51.356Z,1.63
2023-01-18T16:44:53.917Z,1.58
2023-01-18T16:49:55.381Z,1.53
2023-01-18T16:54:56.790Z,1.48
2023-01-18T16:59:58.269Z,1.44
2023-01-18T17:04:59.663Z,1.39
2023-01-18T17:10:01.108Z,1.32
2023-01-18T17:15:02.529Z,1.22
2023-01-18T17:20:21.334Z,1.19
2023-01-18T17:25:24.113Z,1.14
2023-01-18T17:30:25.729Z,1.09
2023-01-18T17:35:28.509Z,1.03
2023-01-18T17:40:39.369Z,1.00
2023-01-18T17:45:48.398Z,0.94
2023-01-18T17:50:52.759Z,0.90
2023-01-18T17:55:55.019Z,0.85
2023-01-18T18:00:56.851Z,0.86
2023-01-18T18:05:59.621Z,0.84
2023-01-18T18:11:02.373Z,0.82
2023-01-18T18:16:04.661Z,0.80
2023-01-18T18:21:07.323Z,0.78
2023-01-18T18:26:09.091Z,0.77
2023-01-18T18:31:16.964Z,0.81
2023-01-18T18:36:18.549Z,0.81
2023-01-18T18:41:20.050Z,0.77
2023-01-18T18:46:21.604Z,0.80
2023-01-18T18:51:23.903Z,0.79
2023-01-18T18:56:25.321Z,0.79
2023-01-18T19:01:31.793Z,0.81
2023-01-18T19:06:33.416Z,0.80
2023-01-18T19:11:36.096Z,0.80
2023-01-18T19:16:39.190Z,0.83
2023-01-18T19:21:42.249Z,0.82
2023-01-18T19:26:44.924Z,0.82
2023-01-18T19:31:46.752Z,0.80
2023-01-18T19:36:49.101Z,0.76
2023-01-18T19:41:50.575Z,0.70
2023-01-18T19:46:52.939Z,0.67
2023-01-18T19:51:54.930Z,0.66
2023-01-18T19:56:56.525Z,0.70
2023-01-18T20:01:58.109Z,0.73
2023-01-18T20:07:01.719Z,0.81
2023-01-18T20:12:03.309Z,0.89
2023-01-18T20:17:04.716Z,1.00
2023-01-18T20:22:06.348Z,1.06
2023-01-18T20:27:15.764Z,1.06
2023-01-18T20:32:18.389Z,1.08
2023-01-18T20:37:20.076Z,1.08
2023-01-18T20:42:21.791Z,1.15
2023-01-18T20:47:23.235Z,1.16
2023-01-18T20:52:24.722Z,1.15
2023-01-18T20:57:30.229Z,1.13
2023-01-18T21:02:31.757Z,1.10
2023-01-18T21:07:33.199Z,1.08
2023-01-18T21:12:34.785Z,1.02
2023-01-18T21:17:36.527Z,0.95
2023-01-18T21:22:37.939Z,0.89
2023-01-18T21:27:43.178Z,0.82
2023-01-18T21:32:45.240Z,0.76
2023-01-18T21:37:46.646Z,0.71
2023-01-18T21:43:06.677Z,0.63
2023-01-18T21:48:08.730Z,0.57
2023-01-18T21:53:33.553Z,0.53
2023-01-18T21:58:52.956Z,0.50
2023-01-18T22:04:13.729Z,0.47
2023-01-18T22:09:15.786Z,0.43
2023-01-18T22:14:17.347Z,0.42
2023-01-18T22:19:19.190Z,0.40
2023-01-18T22:24:20.681Z,0.39
2023-01-18T22:29:22.104Z,0.36
2023-01-18T22:34:23.541Z,0.31
2023-01-18T22:39:25.368Z,0.29
2023-01-18T22:44:26.833Z,0.25
2023-01-18T22:49:28.232Z,0.17
2023-01-18T22:54:29.648Z,0.15
2023-01-18T22:59:31.288Z,0.18
2023-01-18T23:04:34.317Z,0.19
2023-01-18T23:09:35.810Z,0.28
2023-01-18T23:14:55.593Z,0.35
2023-01-18T23:19:56.985Z,0.45
2023-01-18T23:24:58.415Z,0.52
2023-01-18T23:29:59.882Z,0.58
2023-01-18T23:35:01.953Z,0.59
2023-01-18T23:40:22.645Z,0.53
2023-01-18T23:45:42.514Z,0.48
2023-01-18T23:51:02.514Z,0.46
2023-01-18T23:56:04.014Z,0.51
